sensor_id;sensor_type;location;lat;lon;timestamp;P1;durP1;ratioP1;P2;durP2;ratioP2
53881;SDS011;39794;55.782;37.452;2023-04-07T00:00:16;1.95;;;1.05;;
53881;SDS011;39794;55.782;37.452;2023-04-07T00:02:45;2.10;;;1.17;;
53881;SDS011;39794;55.782;37.452;2023-04-07T00:05:14;2.60;;;1.35;;
53881;SDS011;39794;55.782;37.452;2023-04-07T00:07:43;5.07;;;1.30;;
53881;SDS011;39794;55.782;37.452;2023-04-07T00:10:22;4.47;;;1.52;;
53881;SDS011;39794;55.782;37.452;2023-04-07T00:12:52;4.57;;;1.70;;
53881;SDS011;39794;55.782;37.452;2023-04-07T00:15:21;1.35;;;1.10;;
53881;SDS011;39794;55.782;37.452;2023-04-07T00:17:49;1.40;;;0.90;;
53881;SDS011;39794;55.782;37.452;2023-04-07T00:20:18;2.17;;;1.65;;
53881;SDS011;39794;55.782;37.452;2023-04-07T00:22:46;4.45;;;1.33;;
53881;SDS011;39794;55.782;37.452;2023-04-07T00:25:15;1.58;;;0.90;;
53881;SDS011;39794;55.782;37.452;2023-04-07T00:27:43;1.33;;;0.98;;
53881;SDS011;39794;55.782;37.452;2023-04-07T00:30:13;1.92;;;1.08;;
53881;SDS011;39794;55.782;37.452;2023-04-07T00:32:43;1.67;;;0.82;;
53881;SDS011;39794;55.782;37.452;2023-04-07T00:35:12;2.65;;;0.90;;
53881;SDS011;39794;55.782;37.452;2023-04-07T00:37:40;1.98;;;1.17;;
53881;SDS011;39794;55.782;37.452;2023-04-07T00:40:09;1.23;;;1.10;;
53881;SDS011;39794;55.782;37.452;2023-04-07T00:42:39;1.65;;;0.95;;
53881;SDS011;39794;55.782;37.452;2023-04-07T00:45:08;2.42;;;0.90;;
53881;SDS011;39794;55.782;37.452;2023-04-07T00:47:38;1.15;;;1.05;;
53881;SDS011;39794;55.782;37.452;2023-04-07T00:50:08;1.25;;;0.85;;
53881;SDS011;39794;55.782;37.452;2023-04-07T00:52:36;3.50;;;1.00;;
53881;SDS011;39794;55.782;37.452;2023-04-07T00:55:06;1.70;;;0.90;;
53881;SDS011;39794;55.782;37.452;2023-04-07T00:57:35;2.58;;;1.40;;
53881;SDS011;39794;55.782;37.452;2023-04-07T01:00:05;2.35;;;1.00;;
53881;SDS011;39794;55.782;37.452;2023-04-07T01:02:35;2.05;;;1.08;;
53881;SDS011;39794;55.782;37.452;2023-04-07T01:05:08;1.95;;;1.10;;
53881;SDS011;39794;55.782;37.452;2023-04-07T01:07:43;2.33;;;1.35;;
53881;SDS011;39794;55.782;37.452;2023-04-07T01:10:19;2.30;;;1.25;;
53881;SDS011;39794;55.782;37.452;2023-04-07T01:12:57;2.75;;;1.35;;
53881;SDS011;39794;55.782;37.452;2023-04-07T01:15:31;2.50;;;1.05;;
53881;SDS011;39794;55.782;37.452;2023-04-07T01:18:04;1.63;;;1.10;;
53881;SDS011;39794;55.782;37.452;2023-04-07T01:20:37;1.80;;;1.08;;
53881;SDS011;39794;55.782;37.452;2023-04-07T01:23:06;1.70;;;1.20;;
53881;SDS011;39794;55.782;37.452;2023-04-07T01:25:45;1.70;;;1.48;;
53881;SDS011;39794;55.782;37.452;2023-04-07T01:28:29;1.75;;;1.10;;
53881;SDS011;39794;55.782;37.452;2023-04-07T01:31:08;2.30;;;1.15;;
53881;SDS011;39794;55.782;37.452;2023-04-07T01:33:37;2.88;;;1.73;;
53881;SDS011;39794;55.782;37.452;2023-04-07T01:36:07;0.65;;;0.65;;
53881;SDS011;39794;55.782;37.452;2023-04-07T01:38:37;3.78;;;0.90;;
53881;SDS011;39794;55.782;37.452;2023-04-07T01:41:06;2.25;;;1.73;;
53881;SDS011;39794;55.782;37.452;2023-04-07T01:43:35;3.15;;;1.30;;
53881;SDS011;39794;55.782;37.452;2023-04-07T01:46:04;1.42;;;1.30;;
53881;SDS011;39794;55.782;37.452;2023-04-07T01:48:34;2.17;;;1.00;;
53881;SDS011;39794;55.782;37.452;2023-04-07T01:51:03;1.10;;;0.88;;
53881;SDS011;39794;55.782;37.452;2023-04-07T01:53:32;2.53;;;1.00;;
53881;SDS011;39794;55.782;37.452;2023-04-07T01:56:03;1.40;;;1.27;;
53881;SDS011;39794;55.782;37.452;2023-04-07T01:58:35;1.38;;;1.00;;
53881;SDS011;39794;55.782;37.452;2023-04-07T02:01:06;1.60;;;1.35;;
53881;SDS011;39794;55.782;37.452;2023-04-07T02:03:38;2.15;;;1.35;;
53881;SDS011;39794;55.782;37.452;2023-04-07T02:06:10;5.43;;;1.20;;
53881;SDS011;39794;55.782;37.452;2023-04-07T02:08:43;1.70;;;1.13;;
53881;SDS011;39794;55.782;37.452;2023-04-07T02:11:16;2.63;;;1.35;;
53881;SDS011;39794;55.782;37.452;2023-04-07T02:13:46;1.67;;;1.35;;
53881;SDS011;39794;55.782;37.452;2023-04-07T02:16:34;1.52;;;1.20;;
53881;SDS011;39794;55.782;37.452;2023-04-07T02:19:06;3.47;;;1.20;;
53881;SDS011;39794;55.782;37.452;2023-04-07T02:21:35;2.42;;;1.00;;
53881;SDS011;39794;55.782;37.452;2023-04-07T02:24:04;2.17;;;1.35;;
53881;SDS011;39794;55.782;37.452;2023-04-07T02:26:33;2.47;;;1.27;;
53881;SDS011;39794;55.782;37.452;2023-04-07T02:29:02;2.08;;;1.30;;
53881;SDS011;39794;55.782;37.452;2023-04-07T02:31:31;0.80;;;0.70;;
53881;SDS011;39794;55.782;37.452;2023-04-07T02:34:00;4.90;;;1.45;;
53881;SDS011;39794;55.782;37.452;2023-04-07T02:36:30;2.88;;;1.40;;
53881;SDS011;39794;55.782;37.452;2023-04-07T02:38:58;1.40;;;0.98;;
53881;SDS011;39794;55.782;37.452;2023-04-07T02:41:27;3.08;;;1.35;;
53881;SDS011;39794;55.782;37.452;2023-04-07T02:43:55;2.97;;;1.58;;
53881;SDS011;39794;55.782;37.452;2023-04-07T02:46:24;1.73;;;1.08;;
53881;SDS011;39794;55.782;37.452;2023-04-07T02:48:52;1.98;;;1.30;;
53881;SDS011;39794;55.782;37.452;2023-04-07T02:51:21;2.08;;;1.60;;
53881;SDS011;39794;55.782;37.452;2023-04-07T02:53:52;0.80;;;0.80;;
53881;SDS011;39794;55.782;37.452;2023-04-07T02:56:23;3.05;;;1.52;;
53881;SDS011;39794;55.782;37.452;2023-04-07T02:58:51;3.08;;;1.30;;
53881;SDS011;39794;55.782;37.452;2023-04-07T03:01:20;7.07;;;1.40;;
53881;SDS011;39794;55.782;37.452;2023-04-07T03:03:52;4.78;;;1.65;;
53881;SDS011;39794;55.782;37.452;2023-04-07T03:06:25;1.80;;;1.30;;
53881;SDS011;39794;55.782;37.452;2023-04-07T03:09:04;6.55;;;2.08;;
53881;SDS011;39794;55.782;37.452;2023-04-07T03:11:33;3.08;;;2.17;;
53881;SDS011;39794;55.782;37.452;2023-04-07T03:14:02;4.15;;;2.30;;
53881;SDS011;39794;55.782;37.452;2023-04-07T03:16:32;7.75;;;2.72;;
53881;SDS011;39794;55.782;37.452;2023-04-07T03:19:06;3.50;;;2.42;;
53881;SDS011;39794;55.782;37.452;2023-04-07T03:21:38;5.07;;;2.63;;
53881;SDS011;39794;55.782;37.452;2023-04-07T03:24:09;4.32;;;2.35;;
53881;SDS011;39794;55.782;37.452;2023-04-07T03:26:38;5.25;;;2.30;;
53881;SDS011;39794;55.782;37.452;2023-04-07T03:29:18;4.90;;;2.60;;
53881;SDS011;39794;55.782;37.452;2023-04-07T03:31:46;4.93;;;2.42;;
53881;SDS011;39794;55.782;37.452;2023-04-07T03:34:19;2.88;;;1.67;;
53881;SDS011;39794;55.782;37.452;2023-04-07T03:36:47;9.43;;;1.98;;
53881;SDS011;39794;55.782;37.452;2023-04-07T03:39:17;3.38;;;1.88;;
53881;SDS011;39794;55.782;37.452;2023-04-07T03:41:54;2.92;;;1.42;;
53881;SDS011;39794;55.782;37.452;2023-04-07T03:44:25;5.10;;;1.73;;
53881;SDS011;39794;55.782;37.452;2023-04-07T03:46:54;2.75;;;2.08;;
53881;SDS011;39794;55.782;37.452;2023-04-07T03:49:24;5.15;;;2.10;;
53881;SDS011;39794;55.782;37.452;2023-04-07T03:51:54;4.80;;;1.85;;
53881;SDS011;39794;55.782;37.452;2023-04-07T03:54:24;8.27;;;1.83;;
53881;SDS011;39794;55.782;37.452;2023-04-07T03:56:53;2.45;;;1.65;;
53881;SDS011;39794;55.782;37.452;2023-04-07T03:59:22;2.75;;;1.38;;
53881;SDS011;39794;55.782;37.452;2023-04-07T04:01:59;3.05;;;1.67;;
53881;SDS011;39794;55.782;37.452;2023-04-07T04:04:28;4.05;;;1.70;;
53881;SDS011;39794;55.782;37.452;2023-04-07T04:06:57;8.00;;;1.65;;
53881;SDS011;39794;55.782;37.452;2023-04-07T04:09:37;2.90;;;1.60;;
53881;SDS011;39794;55.782;37.452;2023-04-07T04:12:06;4.05;;;1.55;;
53881;SDS011;39794;55.782;37.452;2023-04-07T04:14:41;2.53;;;1.48;;
53881;SDS011;39794;55.782;37.452;2023-04-07T04:17:12;5.72;;;1.80;;
53881;SDS011;39794;55.782;37.452;2023-04-07T04:19:44;9.98;;;1.90;;
53881;SDS011;39794;55.782;37.452;2023-04-07T04:22:22;3.47;;;1.25;;
53881;SDS011;39794;55.782;37.452;2023-04-07T04:24:55;6.65;;;1.80;;
53881;SDS011;39794;55.782;37.452;2023-04-07T04:27:25;1.65;;;1.40;;
53881;SDS011;39794;55.782;37.452;2023-04-07T04:30:03;5.97;;;1.40;;
53881;SDS011;39794;55.782;37.452;2023-04-07T04:32:40;4.57;;;1.55;;
53881;SDS011;39794;55.782;37.452;2023-04-07T04:35:09;4.38;;;1.10;;
53881;SDS011;39794;55.782;37.452;2023-04-07T04:37:47;5.40;;;2.03;;
53881;SDS011;39794;55.782;37.452;2023-04-07T04:40:17;5.57;;;1.63;;
53881;SDS011;39794;55.782;37.452;2023-04-07T04:42:48;2.92;;;1.60;;
53881;SDS011;39794;55.782;37.452;2023-04-07T04:45:18;12.60;;;2.03;;
53881;SDS011;39794;55.782;37.452;2023-04-07T04:47:47;3.47;;;1.83;;
53881;SDS011;39794;55.782;37.452;2023-04-07T04:50:20;3.25;;;1.73;;
53881;SDS011;39794;55.782;37.452;2023-04-07T04:52:49;5.53;;;1.45;;
53881;SDS011;39794;55.782;37.452;2023-04-07T04:55:22;2.00;;;1.60;;
53881;SDS011;39794;55.782;37.452;2023-04-07T04:57:52;4.85;;;2.05;;
53881;SDS011;39794;55.782;37.452;2023-04-07T05:00:31;3.58;;;1.70;;
53881;SDS011;39794;55.782;37.452;2023-04-07T05:03:06;8.32;;;2.10;;
53881;SDS011;39794;55.782;37.452;2023-04-07T05:05:38;5.72;;;2.20;;
53881;SDS011;39794;55.782;37.452;2023-04-07T05:08:09;6.38;;;1.98;;
53881;SDS011;39794;55.782;37.452;2023-04-07T05:10:40;4.70;;;1.85;;
53881;SDS011;39794;55.782;37.452;2023-04-07T05:13:12;6.68;;;2.08;;
53881;SDS011;39794;55.782;37.452;2023-04-07T05:15:41;8.88;;;2.22;;
53881;SDS011;39794;55.782;37.452;2023-04-07T05:18:11;5.18;;;2.17;;
53881;SDS011;39794;55.782;37.452;2023-04-07T05:20:40;5.88;;;2.00;;
53881;SDS011;39794;55.782;37.452;2023-04-07T05:23:09;4.90;;;2.10;;
53881;SDS011;39794;55.782;37.452;2023-04-07T05:25:40;6.82;;;2.03;;
53881;SDS011;39794;55.782;37.452;2023-04-07T05:28:09;4.50;;;2.40;;
53881;SDS011;39794;55.782;37.452;2023-04-07T05:30:37;8.80;;;2.20;;
53881;SDS011;39794;55.782;37.452;2023-04-07T05:33:06;7.85;;;2.67;;
53881;SDS011;39794;55.782;37.452;2023-04-07T05:35:40;6.95;;;2.00;;
53881;SDS011;39794;55.782;37.452;2023-04-07T05:38:14;6.05;;;2.30;;
53881;SDS011;39794;55.782;37.452;2023-04-07T05:40:45;3.30;;;1.85;;
53881;SDS011;39794;55.782;37.452;2023-04-07T05:43:22;8.10;;;2.28;;
53881;SDS011;39794;55.782;37.452;2023-04-07T05:45:51;4.80;;;1.88;;
53881;SDS011;39794;55.782;37.452;2023-04-07T05:48:21;8.55;;;2.33;;
53881;SDS011;39794;55.782;37.452;2023-04-07T05:50:51;5.72;;;1.83;;
53881;SDS011;39794;55.782;37.452;2023-04-07T05:53:20;7.72;;;2.40;;
53881;SDS011;39794;55.782;37.452;2023-04-07T05:55:50;5.55;;;1.75;;
53881;SDS011;39794;55.782;37.452;2023-04-07T05:58:39;11.75;;;2.40;;
53881;SDS011;39794;55.782;37.452;2023-04-07T06:01:09;5.03;;;1.90;;
53881;SDS011;39794;55.782;37.452;2023-04-07T06:14:37;8.23;;;2.55;;
53881;SDS011;39794;55.782;37.452;2023-04-07T06:17:06;5.05;;;2.08;;
53881;SDS011;39794;55.782;37.452;2023-04-07T06:19:37;13.35;;;2.70;;
53881;SDS011;39794;55.782;37.452;2023-04-07T06:22:06;8.50;;;2.25;;
53881;SDS011;39794;55.782;37.452;2023-04-07T06:24:38;6.28;;;2.17;;
53881;SDS011;39794;55.782;37.452;2023-04-07T06:27:07;7.65;;;3.03;;
53881;SDS011;39794;55.782;37.452;2023-04-07T06:29:37;6.45;;;2.20;;
53881;SDS011;39794;55.782;37.452;2023-04-07T06:32:05;6.93;;;2.55;;
53881;SDS011;39794;55.782;37.452;2023-04-07T06:34:35;7.13;;;3.08;;
53881;SDS011;39794;55.782;37.452;2023-04-07T06:37:04;2.83;;;2.15;;
53881;SDS011;39794;55.782;37.452;2023-04-07T06:39:32;9.10;;;3.70;;
53881;SDS011;39794;55.782;37.452;2023-04-07T06:42:01;10.55;;;2.50;;
53881;SDS011;39794;55.782;37.452;2023-04-07T06:44:37;7.57;;;3.08;;
53881;SDS011;39794;55.782;37.452;2023-04-07T06:47:05;5.50;;;3.05;;
53881;SDS011;39794;55.782;37.452;2023-04-07T06:49:35;4.35;;;2.13;;
53881;SDS011;39794;55.782;37.452;2023-04-07T06:52:04;3.75;;;2.40;;
53881;SDS011;39794;55.782;37.452;2023-04-07T06:54:33;9.88;;;2.38;;
53881;SDS011;39794;55.782;37.452;2023-04-07T06:57:02;8.52;;;2.47;;
53881;SDS011;39794;55.782;37.452;2023-04-07T06:59:32;4.88;;;2.00;;
53881;SDS011;39794;55.782;37.452;2023-04-07T07:02:02;5.95;;;2.17;;
53881;SDS011;39794;55.782;37.452;2023-04-07T07:04:33;6.18;;;2.03;;
53881;SDS011;39794;55.782;37.452;2023-04-07T07:07:02;2.72;;;1.90;;
53881;SDS011;39794;55.782;37.452;2023-04-07T07:09:33;7.00;;;3.30;;
53881;SDS011;39794;55.782;37.452;2023-04-07T07:12:02;3.42;;;2.10;;
53881;SDS011;39794;55.782;37.452;2023-04-07T07:14:32;6.60;;;2.20;;
53881;SDS011;39794;55.782;37.452;2023-04-07T07:17:06;5.03;;;2.30;;
53881;SDS011;39794;55.782;37.452;2023-04-07T07:19:35;5.50;;;2.22;;
53881;SDS011;39794;55.782;37.452;2023-04-07T07:22:04;5.88;;;1.70;;
53881;SDS011;39794;55.782;37.452;2023-04-07T07:24:33;3.25;;;2.00;;
53881;SDS011;39794;55.782;37.452;2023-04-07T07:27:04;5.22;;;2.45;;
53881;SDS011;39794;55.782;37.452;2023-04-07T07:29:33;9.90;;;2.35;;
53881;SDS011;39794;55.782;37.452;2023-04-07T07:32:01;11.57;;;1.98;;
53881;SDS011;39794;55.782;37.452;2023-04-07T07:34:33;9.23;;;2.47;;
53881;SDS011;39794;55.782;37.452;2023-04-07T07:37:04;6.78;;;1.90;;
53881;SDS011;39794;55.782;37.452;2023-04-07T07:39:33;6.00;;;2.42;;
53881;SDS011;39794;55.782;37.452;2023-04-07T07:42:01;3.85;;;2.15;;
53881;SDS011;39794;55.782;37.452;2023-04-07T07:44:30;3.15;;;1.30;;
53881;SDS011;39794;55.782;37.452;2023-04-07T07:46:59;7.55;;;2.00;;
53881;SDS011;39794;55.782;37.452;2023-04-07T07:49:30;5.53;;;1.88;;
53881;SDS011;39794;55.782;37.452;2023-04-07T07:52:00;6.43;;;1.70;;
53881;SDS011;39794;55.782;37.452;2023-04-07T07:54:29;2.20;;;1.85;;
53881;SDS011;39794;55.782;37.452;2023-04-07T07:56:59;5.50;;;1.70;;
53881;SDS011;39794;55.782;37.452;2023-04-07T07:59:29;12.23;;;2.08;;
53881;SDS011;39794;55.782;37.452;2023-04-07T08:01:57;4.20;;;1.60;;
53881;SDS011;39794;55.782;37.452;2023-04-07T08:04:26;5.57;;;1.85;;
53881;SDS011;39794;55.782;37.452;2023-04-07T08:06:55;8.23;;;1.65;;
53881;SDS011;39794;55.782;37.452;2023-04-07T08:09:26;4.03;;;1.67;;
53881;SDS011;39794;55.782;37.452;2023-04-07T08:11:55;5.53;;;1.90;;
53881;SDS011;39794;55.782;37.452;2023-04-07T08:14:25;2.33;;;1.33;;
53881;SDS011;39794;55.782;37.452;2023-04-07T08:16:53;5.38;;;1.27;;
53881;SDS011;39794;55.782;37.452;2023-04-07T08:19:22;5.30;;;1.42;;
53881;SDS011;39794;55.782;37.452;2023-04-07T08:21:51;7.05;;;1.33;;
53881;SDS011;39794;55.782;37.452;2023-04-07T08:24:19;6.05;;;1.33;;
53881;SDS011;39794;55.782;37.452;2023-04-07T08:26:49;1.92;;;1.50;;
53881;SDS011;39794;55.782;37.452;2023-04-07T08:29:18;5.57;;;1.98;;
53881;SDS011;39794;55.782;37.452;2023-04-07T08:31:46;6.82;;;1.60;;
53881;SDS011;39794;55.782;37.452;2023-04-07T08:34:15;2.72;;;1.60;;
53881;SDS011;39794;55.782;37.452;2023-04-07T08:36:45;5.15;;;1.75;;
53881;SDS011;39794;55.782;37.452;2023-04-07T08:39:14;2.85;;;1.67;;
53881;SDS011;39794;55.782;37.452;2023-04-07T08:41:45;4.20;;;1.88;;
53881;SDS011;39794;55.782;37.452;2023-04-07T08:44:16;5.78;;;1.25;;
53881;SDS011;39794;55.782;37.452;2023-04-07T08:46:45;7.60;;;1.35;;
53881;SDS011;39794;55.782;37.452;2023-04-07T08:49:15;3.40;;;1.30;;
53881;SDS011;39794;55.782;37.452;2023-04-07T08:51:45;6.15;;;1.70;;
53881;SDS011;39794;55.782;37.452;2023-04-07T08:54:16;1.70;;;1.35;;
53881;SDS011;39794;55.782;37.452;2023-04-07T08:56:50;2.88;;;1.65;;
53881;SDS011;39794;55.782;37.452;2023-04-07T08:59:20;6.25;;;1.77;;
53881;SDS011;39794;55.782;37.452;2023-04-07T09:01:52;4.45;;;1.33;;
53881;SDS011;39794;55.782;37.452;2023-04-07T09:04:22;2.67;;;0.95;;
53881;SDS011;39794;55.782;37.452;2023-04-07T09:06:51;3.10;;;1.60;;
53881;SDS011;39794;55.782;37.452;2023-04-07T09:09:24;8.07;;;1.85;;
53881;SDS011;39794;55.782;37.452;2023-04-07T09:11:55;5.97;;;1.33;;
53881;SDS011;39794;55.782;37.452;2023-04-07T09:14:26;2.58;;;1.30;;
53881;SDS011;39794;55.782;37.452;2023-04-07T09:16:54;3.33;;;1.60;;
53881;SDS011;39794;55.782;37.452;2023-04-07T09:19:26;3.55;;;1.20;;
53881;SDS011;39794;55.782;37.452;2023-04-07T09:21:57;3.17;;;1.50;;
53881;SDS011;39794;55.782;37.452;2023-04-07T09:24:26;3.70;;;1.55;;
53881;SDS011;39794;55.782;37.452;2023-04-07T09:27:07;3.92;;;1.10;;
53881;SDS011;39794;55.782;37.452;2023-04-07T09:29:45;2.13;;;1.50;;
53881;SDS011;39794;55.782;37.452;2023-04-07T09:32:20;2.47;;;1.23;;
53881;SDS011;39794;55.782;37.452;2023-04-07T09:35:03;2.88;;;1.33;;
53881;SDS011;39794;55.782;37.452;2023-04-07T09:37:35;3.17;;;1.30;;
53881;SDS011;39794;55.782;37.452;2023-04-07T09:40:05;2.80;;;1.20;;
53881;SDS011;39794;55.782;37.452;2023-04-07T09:42:35;3.15;;;1.25;;
53881;SDS011;39794;55.782;37.452;2023-04-07T09:45:23;3.58;;;1.83;;
53881;SDS011;39794;55.782;37.452;2023-04-07T09:47:58;9.27;;;2.40;;
53881;SDS011;39794;55.782;37.452;2023-04-07T09:50:30;7.00;;;1.55;;
53881;SDS011;39794;55.782;37.452;2023-04-07T09:53:01;5.45;;;1.60;;
53881;SDS011;39794;55.782;37.452;2023-04-07T09:55:30;3.58;;;2.35;;
53881;SDS011;39794;55.782;37.452;2023-04-07T09:58:02;3.90;;;1.40;;
53881;SDS011;39794;55.782;37.452;2023-04-07T10:00:33;8.82;;;1.73;;
53881;SDS011;39794;55.782;37.452;2023-04-07T10:03:03;6.88;;;1.40;;
53881;SDS011;39794;55.782;37.452;2023-04-07T10:05:32;6.35;;;1.60;;
53881;SDS011;39794;55.782;37.452;2023-04-07T10:08:02;5.72;;;1.75;;
53881;SDS011;39794;55.782;37.452;2023-04-07T10:10:33;2.72;;;1.40;;
53881;SDS011;39794;55.782;37.452;2023-04-07T10:13:03;3.67;;;1.20;;
53881;SDS011;39794;55.782;37.452;2023-04-07T10:15:34;2.55;;;1.15;;
53881;SDS011;39794;55.782;37.452;2023-04-07T10:18:04;2.45;;;1.33;;
53881;SDS011;39794;55.782;37.452;2023-04-07T10:20:34;5.40;;;1.10;;
53881;SDS011;39794;55.782;37.452;2023-04-07T10:23:08;3.55;;;1.20;;
53881;SDS011;39794;55.782;37.452;2023-04-07T10:25:41;6.15;;;1.40;;
53881;SDS011;39794;55.782;37.452;2023-04-07T10:28:14;2.70;;;1.20;;
53881;SDS011;39794;55.782;37.452;2023-04-07T10:30:48;2.65;;;1.10;;
53881;SDS011;39794;55.782;37.452;2023-04-07T10:33:17;3.13;;;1.52;;
53881;SDS011;39794;55.782;37.452;2023-04-07T10:36:03;3.03;;;1.40;;
53881;SDS011;39794;55.782;37.452;2023-04-07T10:38:33;2.65;;;1.50;;
53881;SDS011;39794;55.782;37.452;2023-04-07T10:44:02;4.47;;;1.50;;
53881;SDS011;39794;55.782;37.452;2023-04-07T10:49:35;2.35;;;1.27;;
53881;SDS011;39794;55.782;37.452;2023-04-07T10:52:22;4.55;;;1.15;;
53881;SDS011;39794;55.782;37.452;2023-04-07T10:58:11;1.40;;;0.98;;
53881;SDS011;39794;55.782;37.452;2023-04-07T11:03:58;5.57;;;1.08;;
53881;SDS011;39794;55.782;37.452;2023-04-07T11:06:28;3.17;;;1.88;;
53881;SDS011;39794;55.782;37.452;2023-04-07T11:08:58;3.40;;;1.95;;
53881;SDS011;39794;55.782;37.452;2023-04-07T11:11:36;3.00;;;1.35;;
53881;SDS011;39794;55.782;37.452;2023-04-07T11:14:08;3.00;;;1.30;;
53881;SDS011;39794;55.782;37.452;2023-04-07T11:16:38;4.88;;;1.58;;
53881;SDS011;39794;55.782;37.452;2023-04-07T11:19:10;7.63;;;1.70;;
53881;SDS011;39794;55.782;37.452;2023-04-07T11:21:40;6.25;;;1.45;;
53881;SDS011;39794;55.782;37.452;2023-04-07T11:24:09;2.03;;;0.98;;
53881;SDS011;39794;55.782;37.452;2023-04-07T11:26:38;5.00;;;1.30;;
53881;SDS011;39794;55.782;37.452;2023-04-07T11:29:08;4.75;;;1.67;;
53881;SDS011;39794;55.782;37.452;2023-04-07T11:31:38;3.17;;;1.40;;
53881;SDS011;39794;55.782;37.452;2023-04-07T11:34:07;3.67;;;1.40;;
53881;SDS011;39794;55.782;37.452;2023-04-07T11:36:38;3.10;;;1.58;;
53881;SDS011;39794;55.782;37.452;2023-04-07T11:39:16;2.47;;;1.60;;
53881;SDS011;39794;55.782;37.452;2023-04-07T11:41:47;2.55;;;1.63;;
53881;SDS011;39794;55.782;37.452;2023-04-07T11:44:16;4.63;;;1.80;;
53881;SDS011;39794;55.782;37.452;2023-04-07T11:46:54;6.03;;;1.83;;
53881;SDS011;39794;55.782;37.452;2023-04-07T11:49:25;4.25;;;1.35;;
53881;SDS011;39794;55.782;37.452;2023-04-07T11:51:59;3.90;;;1.85;;
53881;SDS011;39794;55.782;37.452;2023-04-07T11:57:06;2.17;;;1.20;;
53881;SDS011;39794;55.782;37.452;2023-04-07T11:59:38;3.03;;;1.20;;
53881;SDS011;39794;55.782;37.452;2023-04-07T12:02:07;3.75;;;1.60;;
53881;SDS011;39794;55.782;37.452;2023-04-07T12:04:37;5.57;;;1.60;;
53881;SDS011;39794;55.782;37.452;2023-04-07T12:07:09;2.70;;;1.17;;
53881;SDS011;39794;55.782;37.452;2023-04-07T12:09:38;4.82;;;1.70;;
53881;SDS011;39794;55.782;37.452;2023-04-07T12:12:07;4.38;;;1.60;;
53881;SDS011;39794;55.782;37.452;2023-04-07T12:14:38;5.95;;;1.40;;
53881;SDS011;39794;55.782;37.452;2023-04-07T12:17:07;6.57;;;1.35;;
53881;SDS011;39794;55.782;37.452;2023-04-07T12:19:48;5.30;;;1.38;;
53881;SDS011;39794;55.782;37.452;2023-04-07T12:22:18;3.90;;;1.58;;
53881;SDS011;39794;55.782;37.452;2023-04-07T12:24:50;3.08;;;1.10;;
53881;SDS011;39794;55.782;37.452;2023-04-07T12:27:18;5.30;;;1.05;;
53881;SDS011;39794;55.782;37.452;2023-04-07T12:30:01;2.65;;;1.55;;
53881;SDS011;39794;55.782;37.452;2023-04-07T12:32:30;4.00;;;1.00;;
53881;SDS011;39794;55.782;37.452;2023-04-07T12:34:59;2.35;;;1.15;;
53881;SDS011;39794;55.782;37.452;2023-04-07T12:37:30;3.78;;;1.13;;
53881;SDS011;39794;55.782;37.452;2023-04-07T12:40:00;6.30;;;1.63;;
53881;SDS011;39794;55.782;37.452;2023-04-07T12:42:29;4.93;;;1.30;;
53881;SDS011;39794;55.782;37.452;2023-04-07T12:44:57;2.00;;;0.73;;
53881;SDS011;39794;55.782;37.452;2023-04-07T12:47:26;1.33;;;0.95;;
53881;SDS011;39794;55.782;37.452;2023-04-07T12:49:57;2.50;;;1.05;;
53881;SDS011;39794;55.782;37.452;2023-04-07T12:52:26;7.10;;;1.20;;
53881;SDS011;39794;55.782;37.452;2023-04-07T12:54:56;1.27;;;0.60;;
53881;SDS011;39794;55.782;37.452;2023-04-07T12:57:25;4.95;;;1.00;;
53881;SDS011;39794;55.782;37.452;2023-04-07T12:59:54;1.58;;;1.02;;
53881;SDS011;39794;55.782;37.452;2023-04-07T13:02:23;3.35;;;1.10;;
53881;SDS011;39794;55.782;37.452;2023-04-07T13:04:51;2.33;;;1.10;;
53881;SDS011;39794;55.782;37.452;2023-04-07T13:07:20;2.35;;;1.05;;
53881;SDS011;39794;55.782;37.452;2023-04-07T13:09:50;1.48;;;0.70;;
53881;SDS011;39794;55.782;37.452;2023-04-07T13:12:20;2.25;;;1.10;;
53881;SDS011;39794;55.782;37.452;2023-04-07T13:14:48;2.35;;;0.93;;
53881;SDS011;39794;55.782;37.452;2023-04-07T13:17:27;3.10;;;1.00;;
53881;SDS011;39794;55.782;37.452;2023-04-07T13:19:56;2.17;;;1.00;;
53881;SDS011;39794;55.782;37.452;2023-04-07T13:22:28;3.15;;;0.70;;
53881;SDS011;39794;55.782;37.452;2023-04-07T13:24:57;4.63;;;1.15;;
53881;SDS011;39794;55.782;37.452;2023-04-07T13:27:33;2.58;;;0.75;;
53881;SDS011;39794;55.782;37.452;2023-04-07T13:30:01;1.67;;;0.80;;
53881;SDS011;39794;55.782;37.452;2023-04-07T13:32:30;3.25;;;1.23;;
53881;SDS011;39794;55.782;37.452;2023-04-07T13:34:59;2.40;;;1.20;;
53881;SDS011;39794;55.782;37.452;2023-04-07T13:37:28;2.78;;;1.20;;
53881;SDS011;39794;55.782;37.452;2023-04-07T13:39:57;1.30;;;0.90;;
53881;SDS011;39794;55.782;37.452;2023-04-07T13:42:26;5.95;;;1.15;;
53881;SDS011;39794;55.782;37.452;2023-04-07T13:44:56;1.50;;;0.98;;
53881;SDS011;39794;55.782;37.452;2023-04-07T13:47:24;2.45;;;1.00;;
53881;SDS011;39794;55.782;37.452;2023-04-07T13:49:53;2.55;;;1.25;;
53881;SDS011;39794;55.782;37.452;2023-04-07T13:52:24;2.65;;;0.93;;
53881;SDS011;39794;55.782;37.452;2023-04-07T13:54:58;5.45;;;1.33;;
53881;SDS011;39794;55.782;37.452;2023-04-07T13:57:28;2.22;;;1.17;;
53881;SDS011;39794;55.782;37.452;2023-04-07T13:59:58;8.38;;;1.27;;
53881;SDS011;39794;55.782;37.452;2023-04-07T14:02:27;2.22;;;1.20;;
53881;SDS011;39794;55.782;37.452;2023-04-07T14:04:56;2.40;;;0.77;;
53881;SDS011;39794;55.782;37.452;2023-04-07T14:07:30;6.60;;;1.35;;
53881;SDS011;39794;55.782;37.452;2023-04-07T14:09:59;2.55;;;1.30;;
53881;SDS011;39794;55.782;37.452;2023-04-07T14:12:28;2.95;;;1.13;;
53881;SDS011;39794;55.782;37.452;2023-04-07T14:14:58;2.35;;;1.00;;
53881;SDS011;39794;55.782;37.452;2023-04-07T14:17:29;4.82;;;1.27;;
53881;SDS011;39794;55.782;37.452;2023-04-07T14:19:58;4.18;;;2.05;;
53881;SDS011;39794;55.782;37.452;2023-04-07T14:22:27;2.90;;;1.33;;
53881;SDS011;39794;55.782;37.452;2023-04-07T14:24:55;3.30;;;1.25;;
53881;SDS011;39794;55.782;37.452;2023-04-07T14:27:24;6.65;;;1.38;;
53881;SDS011;39794;55.782;37.452;2023-04-07T14:29:58;1.45;;;1.05;;
53881;SDS011;39794;55.782;37.452;2023-04-07T14:32:29;3.90;;;1.20;;
53881;SDS011;39794;55.782;37.452;2023-04-07T14:34:59;3.22;;;1.20;;
53881;SDS011;39794;55.782;37.452;2023-04-07T14:37:28;4.20;;;1.27;;
53881;SDS011;39794;55.782;37.452;2023-04-07T14:39:57;3.90;;;1.10;;
53881;SDS011;39794;55.782;37.452;2023-04-07T14:42:30;3.28;;;1.20;;
53881;SDS011;39794;55.782;37.452;2023-04-07T14:45:01;2.03;;;1.00;;
53881;SDS011;39794;55.782;37.452;2023-04-07T14:47:30;2.88;;;1.83;;
53881;SDS011;39794;55.782;37.452;2023-04-07T14:49:58;2.45;;;1.48;;
53881;SDS011;39794;55.782;37.452;2023-04-07T14:52:28;2.65;;;1.55;;
53881;SDS011;39794;55.782;37.452;2023-04-07T14:54:58;5.05;;;1.50;;
53881;SDS011;39794;55.782;37.452;2023-04-07T14:57:28;2.38;;;1.13;;
53881;SDS011;39794;55.782;37.452;2023-04-07T14:59:56;5.07;;;1.30;;
53881;SDS011;39794;55.782;37.452;2023-04-07T15:02:28;3.35;;;1.00;;
53881;SDS011;39794;55.782;37.452;2023-04-07T15:04:58;2.33;;;1.23;;
53881;SDS011;39794;55.782;37.452;2023-04-07T15:07:28;5.45;;;1.45;;
53881;SDS011;39794;55.782;37.452;2023-04-07T15:09:56;11.70;;;1.73;;
53881;SDS011;39794;55.782;37.452;2023-04-07T15:12:27;2.17;;;1.02;;
53881;SDS011;39794;55.782;37.452;2023-04-07T15:14:57;2.72;;;1.38;;
53881;SDS011;39794;55.782;37.452;2023-04-07T15:17:26;3.45;;;1.45;;
53881;SDS011;39794;55.782;37.452;2023-04-07T15:20:08;6.07;;;1.70;;